Paupack, Pennsylvania
Current Conditions -  °F | °C
As of 12:53 AM on Tuesday 27 Jan 2015 (Local Time) from KMPO Reporting Station
Overcast Overcast  
Wind Chill:   Ceiling: 6500
Heat Index: 19°   Visibility: 10mi
Dew Point: 13°   Wind: 13mph
Humidity: 77%   Direction: 40°NE
Pressure: 29.63"   Gusts: 21mph
Location:  41.4°N, 75.2°W
Report Text: KMPO 270553Z AUTO 04011G18KT 10SM FEW014 BKN065 OVC100 M07/M11 A2963 RMK AO2 SLP066 60000 T10721106 11067 21072 58014
Loading
Personal Weather Stations






























Interactive Weather Map New forecast layout! Learn more

10-Day Weather Forecast

Advertisements
Track Severe Weather on mobile